| time (UTC) | temp F | wind direction | speed MPH | gust MPH | rain 1hr in | rain 24hr in | rain mn in | humidity % | barometer mb |
| 20260831200459 | 96 | 222 | 2.0 | 2.0 | 0.00 | 0.00 | 0.00 | 62 | 1009.6 |
| 20260831195954 | 97 | 302 | 3.0 | 3.0 | 0.00 | 0.00 | 0.00 | 56 | 1009.7 |
| 20260831195450 | 97 | 251 | 4.0 | 6.0 | 0.00 | 0.00 | 0.00 | 54 | 1009.7 |
| 20260831194950 | 96 | 237 | 2.0 | 3.0 | 0.00 | 0.00 | 0.00 | 55 | 1009.6 |
| 20260831194445 | 96 | 232 | 2.0 | 2.0 | 0.00 | 0.00 | 0.00 | 54 | 1009.6 |
| 20260831193945 | 96 | 221 | 3.0 | 3.0 | 0.00 | 0.00 | 0.00 | 54 | 1009.7 |
| 20260831193440 | 96 | 223 | 2.0 | 2.0 | 0.00 | 0.00 | 0.00 | 56 | 1009.6 |
| 20260831192935 | 96 | 212 | 1.0 | 2.0 | 0.00 | 0.00 | 0.00 | 52 | 1009.8 |
| 20260831192430 | 96 | 225 | 2.0 | 2.0 | 0.00 | 0.00 | 0.00 | 54 | 1009.7 |
| 20260831191925 | 97 | 177 | 1.0 | 2.0 | 0.00 | 0.00 | 0.00 | 60 | 1010.0 |
| 20260831191421 | 96 | 226 | 1.0 | 1.0 | 0.00 | 0.00 | 0.00 | 59 | 1010.1 |
| 20260831190917 | 97 | 85 | 4.0 | 6.0 | 0.00 | 0.00 | 0.00 | 58 | 1009.9 |
| 20260831190412 | 96 | 207 | 1.0 | 1.0 | 0.00 | 0.00 | 0.00 | 58 | 1010.0 |
| 20260831185911 | 96 | 201 | 0.0 | 1.0 | 0.00 | 0.00 | 0.00 | 61 | 1010.0 |
| 20260831185407 | 96 | 196 | 2.0 | 3.0 | 0.00 | 0.00 | 0.00 | 65 | 1010.2 |
| 20260831184906 | 95 | 136 | 4.0 | 4.0 | 0.00 | 0.00 | 0.00 | 65 | 1010.4 |
| 20260831184401 | 95 | 194 | 2.0 | 3.0 | 0.00 | 0.00 | 0.00 | 66 | 1010.5 |
| 20260831183856 | 95 | 268 | 2.0 | 3.0 | 0.00 | 0.00 | 0.00 | 66 | 1010.3 |
| 20260831183350 | 95 | 55 | 6.0 | 7.0 | 0.00 | 0.00 | 0.00 | 65 | 1010.3 |
| 20260831182849 | 95 | 208 | 1.0 | 1.0 | 0.00 | 0.00 | 0.00 | 66 | 1010.4 |
| 20260831182345 | 95 | 212 | 4.0 | 4.0 | 0.00 | 0.00 | 0.00 | 62 | 1010.5 |
| 20260831181840 | 96 | 209 | 2.0 | 2.0 | 0.00 | 0.00 | 0.00 | 62 | 1010.5 |
| 20260831181335 | 96 | 211 | 1.0 | 2.0 | 0.00 | 0.00 | 0.00 | 62 | 1010.6 |
| 20260831180830 | 96 | 196 | 2.0 | 2.0 | 0.00 | 0.00 | 0.00 | 60 | 1010.7 |
| 20260831180325 | 96 | 206 | 2.0 | 2.0 | 0.00 | 0.00 | 0.00 | 62 | 1010.6 |
| 20260831175824 | 95 | 233 | 3.0 | 3.0 | 0.00 | 0.00 | 0.00 | 62 | 1010.7 |
| 20260831175320 | 94 | 210 | 4.0 | 6.0 | 0.00 | 0.00 | 0.00 | 65 | 1010.7 |
| 20260831174816 | 94 | 216 | 4.0 | 7.0 | 0.00 | 0.00 | 0.00 | 65 | 1010.7 |
| 20260831174312 | 95 | 196 | 3.0 | 4.0 | 0.00 | 0.00 | 0.00 | 64 | 1010.9 |
| 20260831173811 | 96 | 260 | 2.0 | 4.0 | 0.00 | 0.00 | 0.00 | 64 | 1011.0 |
| 20260831173304 | 96 | 246 | 3.0 | 6.0 | 0.00 | 0.00 | 0.00 | 63 | 1010.9 |
| 20260831172759 | 96 | 208 | 3.0 | 4.0 | 0.00 | 0.00 | 0.00 | 61 | 1010.9 |
| 20260831172250 | 95 | 200 | 2.0 | 3.0 | 0.00 | 0.00 | 0.00 | 66 | 1010.8 |
| 20260831171749 | 95 | 175 | 2.0 | 3.0 | 0.00 | 0.00 | 0.00 | 65 | 1011.0 |
| 20260831171247 | 94 | 210 | 1.0 | 2.0 | 0.00 | 0.00 | 0.00 | 68 | 1011.1 |
| 20260831170743 | 94 | 202 | 1.0 | 1.0 | 0.00 | 0.00 | 0.00 | 67 | 1011.2 |
| 20260831170239 | 94 | 207 | 3.0 | 4.0 | 0.00 | 0.00 | 0.00 | 68 | 1010.9 |
| 20260831165735 | 95 | 201 | 4.0 | 7.0 | 0.00 | 0.00 | 0.00 | 69 | 1010.8 |
| 20260831165232 | 95 | 212 | 1.0 | 1.0 | 0.00 | 0.00 | 0.00 | 69 | 1011.0 |
| 20260831164727 | 94 | 237 | 1.0 | 1.0 | 0.00 | 0.00 | 0.00 | 70 | 1011.1 |
| 20260831164224 | 95 | 207 | 1.0 | 1.0 | 0.00 | 0.00 | 0.00 | 69 | 1011.0 |
| 20260831163718 | 94 | 198 | 5.0 | 8.0 | 0.00 | 0.00 | 0.00 | 69 | 1011.1 |
| 20260831163214 | 94 | 210 | 3.0 | 4.0 | 0.00 | 0.00 | 0.00 | 71 | 1011.0 |
| 20260831162712 | 92 | 127 | 2.0 | 2.0 | 0.00 | 0.00 | 0.00 | 73 | 1010.9 |
| 20260831162211 | 92 | 216 | 4.0 | 4.0 | 0.00 | 0.00 | 0.00 | 75 | 1010.7 |
| 20260831161701 | 91 | 226 | 2.0 | 3.0 | 0.00 | 0.00 | 0.00 | 75 | 1011.0 |
| 20260831161158 | 92 | 199 | 2.0 | 2.0 | 0.00 | 0.00 | 0.00 | 73 | 1011.0 |
| 20260831160656 | 91 | 218 | 0.0 | 0.0 | 0.00 | 0.00 | 0.00 | 75 | 1011.1 |
| 20260831160152 | 93 | 205 | 1.0 | 1.0 | 0.00 | 0.00 | 0.00 | 71 | 1010.9 |
| 20260831155651 | 93 | 228 | 0.0 | 1.0 | 0.00 | 0.00 | 0.00 | 70 | 1010.8 |
| 20260831155147 | 92 | 208 | 0.0 | 1.0 | 0.00 | 0.00 | 0.00 | 73 | 1010.9 |
| 20260831154643 | 92 | 250 | 0.0 | 0.0 | 0.00 | 0.00 | 0.00 | 72 | 1010.9 |
| 20260831154138 | 93 | 191 | 2.0 | 2.0 | 0.00 | 0.00 | 0.00 | 70 | 1010.9 |
| 20260831153637 | 92 | 204 | 0.0 | 0.0 | 0.00 | 0.00 | 0.00 | 70 | 1010.7 |
| 20260831153133 | 91 | 196 | 2.0 | 3.0 | 0.00 | 0.00 | 0.00 | 72 | 1010.8 |
| 20260831152629 | 92 | 155 | 3.0 | 3.0 | 0.00 | 0.00 | 0.00 | 70 | 1010.7 |
| 20260831152125 | 91 | 197 | 2.0 | 3.0 | 0.00 | 0.00 | 0.00 | 73 | 1010.7 |
| 20260831151624 | 91 | 175 | 4.0 | 4.0 | 0.00 | 0.00 | 0.00 | 74 | 1010.7 |
| 20260831151119 | 89 | 196 | 2.0 | 2.0 | 0.00 | 0.00 | 0.00 | 75 | 1010.8 |
| 20260831150614 | 89 | 209 | 0.0 | 1.0 | 0.00 | 0.00 | 0.00 | 76 | 1010.8 |
| 20260831150110 | 89 | 155 | 4.0 | 4.0 | 0.00 | 0.00 | 0.00 | 76 | 1010.7 |
| 20260831145603 | 89 | 203 | 1.0 | 2.0 | 0.00 | 0.00 | 0.00 | 78 | 1010.7 |
| 20260831145100 | 90 | 197 | 2.0 | 3.0 | 0.00 | 0.00 | 0.00 | 77 | 1010.7 |
| 20260831144555 | 89 | 200 | 4.0 | 6.0 | 0.00 | 0.00 | 0.00 | 78 | 1010.6 |
| 20260831144051 | 89 | 223 | 0.0 | 1.0 | 0.00 | 0.00 | 0.00 | 79 | 1010.4 |
| 20260831143545 | 88 | 220 | 2.0 | 3.0 | 0.00 | 0.00 | 0.00 | 80 | 1010.3 |
| 20260831143041 | 88 | 157 | 3.0 | 4.0 | 0.00 | 0.00 | 0.00 | 80 | 1010.4 |
| 20260831142537 | 88 | 182 | 2.0 | 2.0 | 0.00 | 0.00 | 0.00 | 81 | 1010.4 |
| 20260831142032 | 88 | 206 | 3.0 | 3.0 | 0.00 | 0.00 | 0.00 | 81 | 1010.3 |
| 20260831141531 | 89 | 192 | 3.0 | 3.0 | 0.00 | 0.00 | 0.00 | 81 | 1010.4 |
| 20260831141027 | 88 | 211 | 1.0 | 2.0 | 0.00 | 0.00 | 0.00 | 82 | 1010.4 |
| 20260831140526 | 87 | 193 | 2.0 | 2.0 | 0.00 | 0.00 | 0.00 | 84 | 1010.3 |
| 20260831140026 | 87 | 216 | 0.0 | 1.0 | 0.00 | 0.00 | 0.00 | 85 | 1010.3 |
| 20260831135524 | 87 | 214 | 0.0 | 0.0 | 0.00 | 0.00 | 0.00 | 85 | 1010.1 |
| 20260831135019 | 86 | 210 | 2.0 | 2.0 | 0.00 | 0.00 | 0.00 | 85 | 1010.0 |
| 20260831134515 | 87 | 207 | 1.0 | 2.0 | 0.00 | 0.00 | 0.00 | 85 | 1010.2 |
| 20260831134015 | 86 | 184 | 2.0 | 4.0 | 0.00 | 0.00 | 0.00 | 86 | 1010.1 |
| 20260831133510 | 86 | 199 | 0.0 | 0.0 | 0.00 | 0.00 | 0.00 | 88 | 1010.3 |
| 20260831133004 | 85 | 203 | 1.0 | 2.0 | 0.00 | 0.00 | 0.00 | 89 | 1010.1 |
| 20260831132501 | 85 | 220 | 0.0 | 0.0 | 0.00 | 0.00 | 0.00 | 90 | 1010.1 |
| 20260831131959 | 84 | 197 | 0.0 | 0.0 | 0.00 | 0.00 | 0.00 | 91 | 1010.0 |
| 20260831131454 | 84 | 173 | 0.0 | 0.0 | 0.00 | 0.00 | 0.00 | 92 | 1009.9 |
| 20260831130950 | 83 | 196 | 0.0 | 0.0 | 0.00 | 0.00 | 0.00 | 93 | 1010.1 |
| 20260831130445 | 83 | 211 | 0.0 | 0.0 | 0.00 | 0.00 | 0.00 | 94 | 1009.9 |
| 20260831125944 | 83 | 203 | 0.0 | 1.0 | 0.00 | 0.00 | 0.00 | 94 | 1009.6 |
| 20260831125439 | 82 | 219 | 0.0 | 0.0 | 0.00 | 0.00 | 0.00 | 95 | 1009.8 |
| 20260831124935 | 82 | 217 | 0.0 | 0.0 | 0.00 | 0.00 | 0.00 | 95 | 1009.7 |
| 20260831124431 | 82 | 215 | 0.0 | 0.0 | 0.00 | 0.00 | 0.00 | 95 | 1009.7 |
| 20260831123927 | 82 | 219 | 0.0 | 0.0 | 0.00 | 0.00 | 0.00 | 96 | 1009.6 |
| 20260831123425 | 82 | 215 | 0.0 | 0.0 | 0.00 | 0.00 | 0.00 | 96 | 1009.6 |
| 20260831122919 | 82 | 197 | 0.0 | 0.0 | 0.00 | 0.00 | 0.00 | 96 | 1009.6 |
| 20260831122409 | 82 | 223 | 0.0 | 0.0 | 0.00 | 0.00 | 0.00 | 96 | 1009.4 |
| 20260831121904 | 82 | 219 | 0.0 | 0.0 | 0.00 | 0.00 | 0.00 | 96 | 1009.5 |
| 20260831121400 | 82 | 166 | 0.0 | 1.0 | 0.00 | 0.00 | 0.00 | 96 | 1009.5 |
| 20260831120855 | 82 | 221 | 0.0 | 0.0 | 0.00 | 0.00 | 0.00 | 96 | 1009.5 |
| 20260831120350 | 82 | 220 | 0.0 | 0.0 | 0.00 | 0.00 | 0.00 | 95 | 1009.3 |
| 20260831115845 | 82 | 212 | 0.0 | 0.0 | 0.00 | 0.00 | 0.00 | 95 | 1009.3 |
| 20260831115342 | 82 | 216 | 0.0 | 0.0 | 0.00 | 0.00 | 0.00 | 95 | 1009.1 |
| 20260831114840 | 82 | 216 | 0.0 | 0.0 | 0.00 | 0.00 | 0.00 | 95 | 1009.2 |
| 20260831114334 | 82 | 227 | 0.0 | 0.0 | 0.00 | 0.00 | 0.00 | 95 | 1009.1 |
| 20260831113829 | 82 | 217 | 0.0 | 0.0 | 0.00 | 0.00 | 0.00 | 95 | 1009.4 |
| 20260831113323 | 82 | 227 | 0.0 | 0.0 | 0.00 | 0.00 | 0.00 | 95 | 1009.1 |
| 20260831112818 | 82 | 216 | 0.0 | 0.0 | 0.00 | 0.00 | 0.00 | 95 | 1009.0 |
| 20260831112313 | 82 | 219 | 0.0 | 0.0 | 0.00 | 0.00 | 0.00 | 95 | 1009.2 |
| 20260831111808 | 82 | 217 | 0.0 | 0.0 | 0.00 | 0.00 | 0.00 | 95 | 1009.0 |
| 20260831111305 | 82 | 220 | 0.0 | 0.0 | 0.00 | 0.00 | 0.00 | 94 | 1008.9 |
| 20260831110801 | 82 | 215 | 0.0 | 0.0 | 0.00 | 0.00 | 0.00 | 94 | 1009.1 |
| 20260831110255 | 82 | 212 | 0.0 | 0.0 | 0.00 | 0.00 | 0.00 | 94 | 1009.0 |
| 20260831105754 | 82 | 220 | 0.0 | 0.0 | 0.00 | 0.00 | 0.00 | 94 | 1009.0 |
| 20260831105250 | 82 | 203 | 0.0 | 0.0 | 0.00 | 0.00 | 0.00 | 94 | 1009.2 |
| 20260831104750 | 82 | 204 | 0.0 | 0.0 | 0.00 | 0.00 | 0.00 | 94 | 1008.7 |
| 20260831104246 | 82 | 215 | 0.0 | 0.0 | 0.00 | 0.00 | 0.00 | 94 | 1008.9 |
| 20260831103745 | 83 | 215 | 0.0 | 0.0 | 0.00 | 0.00 | 0.00 | 93 | 1008.7 |
| 20260831103241 | 83 | 207 | 2.0 | 3.0 | 0.00 | 0.00 | 0.00 | 93 | 1009.1 |
| 20260831102736 | 83 | 211 | 0.0 | 0.0 | 0.00 | 0.00 | 0.00 | 93 | 1008.9 |
| 20260831102231 | 83 | 218 | 0.0 | 0.0 | 0.00 | 0.00 | 0.00 | 93 | 1009.0 |
| 20260831101726 | 83 | 217 | 0.0 | 0.0 | 0.00 | 0.00 | 0.00 | 93 | 1009.1 |
| 20260831101222 | 83 | 186 | 0.0 | 0.0 | 0.00 | 0.00 | 0.00 | 93 | 1009.2 |
| 20260831100718 | 83 | 220 | 0.0 | 0.0 | 0.00 | 0.00 | 0.00 | 92 | 1009.2 |
| 20260831100214 | 83 | 217 | 0.0 | 0.0 | 0.00 | 0.00 | 0.00 | 92 | 1009.3 |
| 20260831095712 | 83 | 216 | 0.0 | 0.0 | 0.00 | 0.00 | 0.00 | 92 | 1009.5 |
| 20260831095207 | 83 | 217 | 0.0 | 1.0 | 0.00 | 0.00 | 0.00 | 92 | 1009.4 |
| 20260831094702 | 83 | 217 | 0.0 | 0.0 | 0.00 | 0.00 | 0.00 | 92 | 1009.5 |
| 20260831094158 | 83 | 194 | 0.0 | 0.0 | 0.00 | 0.00 | 0.00 | 92 | 1009.3 |
| 20260831093654 | 83 | 200 | 0.0 | 0.0 | 0.00 | 0.00 | 0.00 | 92 | 1009.5 |
| 20260831093149 | 83 | 215 | 0.0 | 0.0 | 0.00 | 0.00 | 0.00 | 92 | 1009.5 |
| 20260831092645 | 83 | 211 | 0.0 | 0.0 | 0.00 | 0.00 | 0.00 | 92 | 1009.4 |
| 20260831092141 | 83 | 202 | 2.0 | 2.0 | 0.00 | 0.00 | 0.00 | 91 | 1009.4 |
| 20260831091640 | 83 | 209 | 0.0 | 0.0 | 0.00 | 0.00 | 0.00 | 91 | 1009.4 |
| 20260831091136 | 83 | 200 | 1.0 | 2.0 | 0.00 | 0.00 | 0.00 | 91 | 1009.4 |
| 20260831090631 | 83 | 215 | 0.0 | 0.0 | 0.00 | 0.00 | 0.00 | 90 | 1009.4 |
| 20260831090127 | 83 | 206 | 2.0 | 2.0 | 0.00 | 0.00 | 0.00 | 90 | 1009.4 |
| 20260831085622 | 84 | 219 | 0.0 | 0.0 | 0.00 | 0.00 | 0.00 | 90 | 1009.3 |
| 20260831085118 | 84 | 188 | 0.0 | 1.0 | 0.00 | 0.00 | 0.00 | 90 | 1009.3 |
| 20260831084613 | 84 | 207 | 0.0 | 0.0 | 0.00 | 0.00 | 0.00 | 89 | 1009.3 |
| 20260831084109 | 84 | 210 | 2.0 | 3.0 | 0.00 | 0.00 | 0.00 | 89 | 1009.4 |
| 20260831083605 | 84 | 217 | 0.0 | 0.0 | 0.00 | 0.00 | 0.00 | 89 | 1009.5 |
| 20260831083100 | 84 | 217 | 0.0 | 0.0 | 0.00 | 0.00 | 0.00 | 88 | 1009.5 |
| 20260831082558 | 84 | 189 | 1.0 | 1.0 | 0.00 | 0.00 | 0.00 | 88 | 1009.4 |
| 20260831082054 | 84 | 215 | 0.0 | 0.0 | 0.00 | 0.00 | 0.00 | 88 | 1009.7 |
| 20260831081549 | 84 | 218 | 0.0 | 1.0 | 0.00 | 0.00 | 0.00 | 88 | 1009.6 |
| 20260831081045 | 84 | 214 | 0.0 | 0.0 | 0.00 | 0.00 | 0.00 | 88 | 1009.7 |
| 20260831080545 | 84 | 213 | 0.0 | 2.0 | 0.00 | 0.00 | 0.00 | 88 | 1009.6 |
| 20260831080041 | 84 | 190 | 1.0 | 2.0 | 0.00 | 0.00 | 0.00 | 88 | 1009.7 |
| 20260831075536 | 84 | 194 | 1.0 | 1.0 | 0.00 | 0.00 | 0.00 | 88 | 1009.7 |
| 20260831075032 | 84 | 203 | 0.0 | 0.0 | 0.00 | 0.00 | 0.00 | 88 | 1009.9 |
| 20260831074531 | 84 | 208 | 0.0 | 0.0 | 0.00 | 0.00 | 0.00 | 88 | 1010.1 |
| 20260831074026 | 84 | 216 | 0.0 | 0.0 | 0.00 | 0.00 | 0.00 | 88 | 1009.8 |
| 20260831073521 | 84 | 215 | 1.0 | 1.0 | 0.00 | 0.00 | 0.00 | 87 | 1009.8 |
| 20260831073020 | 84 | 211 | 1.0 | 1.0 | 0.00 | 0.00 | 0.00 | 88 | 1010.0 |
| 20260831072515 | 84 | 215 | 0.0 | 0.0 | 0.00 | 0.00 | 0.00 | 88 | 1010.0 |
| 20260831072012 | 84 | 196 | 1.0 | 2.0 | 0.00 | 0.00 | 0.00 | 88 | 1010.0 |
| 20260831071510 | 84 | 180 | 0.0 | 0.0 | 0.00 | 0.00 | 0.00 | 89 | 1009.9 |
| 20260831071006 | 84 | 206 | 0.0 | 0.0 | 0.00 | 0.00 | 0.00 | 89 | 1010.0 |
| 20260831070504 | 84 | 197 | 0.0 | 1.0 | 0.00 | 0.00 | 0.00 | 89 | 1009.9 |
| 20260831065959 | 84 | 176 | 3.0 | 3.0 | 0.00 | 0.00 | 0.00 | 89 | 1009.9 |
| 20260831065457 | 84 | 128 | 4.0 | 7.0 | 0.00 | 0.00 | 0.00 | 89 | 1009.9 |
| 20260831064952 | 84 | 161 | 3.0 | 7.0 | 0.00 | 0.00 | 0.00 | 88 | 1010.2 |
| 20260831064447 | 84 | 184 | 3.0 | 3.0 | 0.00 | 0.00 | 0.00 | 89 | 1010.2 |
| 20260831063942 | 84 | 193 | 2.0 | 2.0 | 0.00 | 0.00 | 0.00 | 89 | 1010.1 |
| 20260831063437 | 84 | 220 | 0.0 | 0.0 | 0.00 | 0.00 | 0.00 | 89 | 1010.1 |
| 20260831062931 | 84 | 216 | 0.0 | 1.0 | 0.00 | 0.00 | 0.00 | 89 | 1010.1 |
| 20260831062429 | 84 | 218 | 1.0 | 1.0 | 0.00 | 0.00 | 0.00 | 90 | 1010.0 |
| 20260831061926 | 84 | 211 | 1.0 | 1.0 | 0.00 | 0.00 | 0.00 | 90 | 1010.0 |
| 20260831061425 | 84 | 190 | 2.0 | 3.0 | 0.00 | 0.00 | 0.00 | 90 | 1009.9 |
| 20260831060921 | 84 | 184 | 1.0 | 2.0 | 0.00 | 0.00 | 0.00 | 89 | 1009.9 |
| 20260831060416 | 84 | 218 | 0.0 | 0.0 | 0.00 | 0.00 | 0.00 | 89 | 1009.9 |
| 20260831055915 | 84 | 167 | 3.0 | 4.0 | 0.00 | 0.00 | 0.00 | 88 | 1009.9 |
| 20260831055410 | 84 | 202 | 0.0 | 0.0 | 0.00 | 0.00 | 0.00 | 88 | 1009.8 |
| 20260831054906 | 84 | 211 | 0.0 | 0.0 | 0.00 | 0.00 | 0.00 | 88 | 1010.1 |
| 20260831054401 | 84 | 210 | 0.0 | 0.0 | 0.00 | 0.00 | 0.00 | 88 | 1010.0 |
| 20260831053900 | 84 | 194 | 0.0 | 0.0 | 0.00 | 0.00 | 0.00 | 88 | 1009.8 |
| 20260831053358 | 84 | 221 | 1.0 | 1.0 | 0.00 | 0.00 | 0.00 | 88 | 1009.8 |
| 20260831052853 | 84 | 215 | 2.0 | 3.0 | 0.00 | 0.00 | 0.00 | 89 | 1010.0 |
| 20260831052352 | 84 | 202 | 1.0 | 1.0 | 0.00 | 0.00 | 0.00 | 89 | 1009.7 |
| 20260831051850 | 84 | 200 | 0.0 | 0.0 | 0.00 | 0.00 | 0.00 | 89 | 1010.2 |
| 20260831051348 | 84 | 191 | 1.0 | 1.0 | 0.00 | 0.00 | 0.00 | 88 | 1009.8 |
| 20260831050844 | 84 | 225 | 0.0 | 0.0 | 0.00 | 0.00 | 0.00 | 88 | 1009.7 |
| 20260831050337 | 84 | 210 | 0.0 | 0.0 | 0.00 | 0.00 | 0.00 | 88 | 1010.0 |
| 20260831045831 | 84 | 212 | 0.0 | 0.0 | 0.00 | 0.00 | 0.00 | 88 | 1009.7 |
| 20260831045326 | 85 | 216 | 1.0 | 2.0 | 0.00 | 0.00 | 0.00 | 88 | 1010.0 |
| 20260831044821 | 85 | 194 | 1.0 | 2.0 | 0.00 | 0.00 | 0.00 | 88 | 1010.1 |
| 20260831044316 | 85 | 211 | 2.0 | 2.0 | 0.00 | 0.00 | 0.00 | 88 | 1009.9 |
| 20260831043813 | 85 | 201 | 2.0 | 3.0 | 0.00 | 0.00 | 0.00 | 88 | 1009.9 |
| 20260831043311 | 85 | 201 | 0.0 | 0.0 | 0.00 | 0.00 | 0.00 | 88 | 1009.8 |
| 20260831042807 | 85 | 227 | 0.0 | 0.0 | 0.00 | 0.00 | 0.00 | 87 | 1009.9 |
| 20260831042307 | 85 | 214 | 0.0 | 0.0 | 0.00 | 0.00 | 0.00 | 87 | 1009.9 |
| 20260831041802 | 85 | 217 | 0.0 | 0.0 | 0.00 | 0.00 | 0.00 | 87 | 1010.0 |
| 20260831041301 | 85 | 214 | 0.0 | 0.0 | 0.00 | 0.00 | 0.00 | 86 | 1009.7 |
| 20260831040756 | 85 | 205 | 1.0 | 2.0 | 0.00 | 0.00 | 0.00 | 86 | 1009.6 |
| 20260831040255 | 85 | 221 | 0.0 | 0.0 | 0.00 | 0.00 | 0.00 | 86 | 1009.7 |
| 20260831035753 | 85 | 217 | 2.0 | 2.0 | 0.00 | 0.00 | 0.00 | 86 | 1009.8 |
| 20260831035252 | 85 | 220 | 0.0 | 0.0 | 0.00 | 0.00 | 0.00 | 85 | 1009.5 |
| 20260831034747 | 85 | 199 | 0.0 | 1.0 | 0.00 | 0.00 | 0.00 | 85 | 1009.5 |
| 20260831034242 | 85 | 218 | 0.0 | 1.0 | 0.00 | 0.00 | 0.00 | 85 | 1009.4 |
| 20260831033738 | 85 | 202 | 0.0 | 0.0 | 0.00 | 0.00 | 0.00 | 85 | 1009.4 |
| 20260831033237 | 85 | 220 | 2.0 | 2.0 | 0.00 | 0.00 | 0.00 | 85 | 1009.5 |
| 20260831032733 | 85 | 221 | 1.0 | 1.0 | 0.00 | 0.00 | 0.00 | 85 | 1009.4 |
| 20260831032227 | 85 | 190 | 3.0 | 4.0 | 0.00 | 0.00 | 0.00 | 85 | 1009.3 |
| 20260831031722 | 85 | 217 | 0.0 | 1.0 | 0.00 | 0.00 | 0.00 | 85 | 1009.3 |
| 20260831031217 | 85 | 200 | 1.0 | 2.0 | 0.00 | 0.00 | 0.00 | 85 | 1009.1 |
| 20260831030716 | 85 | 190 | 3.0 | 4.0 | 0.00 | 0.00 | 0.00 | 85 | 1009.3 |
| 20260831030215 | 85 | 195 | 0.0 | 0.0 | 0.00 | 0.00 | 0.00 | 85 | 1009.0 |
| 20260831025714 | 85 | 230 | 1.0 | 2.0 | 0.00 | 0.00 | 0.00 | 85 | 1009.1 |
| 20260831025209 | 85 | 211 | 2.0 | 2.0 | 0.00 | 0.00 | 0.00 | 85 | 1009.1 |
| 20260831024705 | 85 | 211 | 0.0 | 1.0 | 0.00 | 0.00 | 0.00 | 86 | 1008.9 |
| 20260831024204 | 85 | 214 | 0.0 | 0.0 | 0.00 | 0.00 | 0.00 | 86 | 1009.0 |
| 20260831023702 | 85 | 202 | 2.0 | 4.0 | 0.00 | 0.00 | 0.00 | 86 | 1008.9 |
| 20260831023201 | 85 | 198 | 0.0 | 0.0 | 0.00 | 0.00 | 0.00 | 86 | 1008.9 |
| 20260831022656 | 85 | 214 | 0.0 | 0.0 | 0.00 | 0.00 | 0.00 | 85 | 1009.0 |
| 20260831022151 | 86 | 221 | 0.0 | 1.0 | 0.00 | 0.00 | 0.00 | 85 | 1008.9 |
| 20260831021650 | 86 | 227 | 0.0 | 1.0 | 0.00 | 0.00 | 0.00 | 85 | 1009.0 |
| 20260831021146 | 86 | 277 | 1.0 | 2.0 | 0.00 | 0.00 | 0.00 | 85 | 1008.7 |
| 20260831020642 | 86 | 166 | 3.0 | 3.0 | 0.00 | 0.00 | 0.00 | 85 | 1008.9 |
| 20260831020141 | 86 | 204 | 2.0 | 2.0 | 0.00 | 0.00 | 0.00 | 85 | 1008.6 |
| 20260831015637 | 86 | 202 | 0.0 | 1.0 | 0.00 | 0.00 | 0.00 | 84 | 1008.6 |
| 20260831015137 | 86 | 208 | 1.0 | 1.0 | 0.00 | 0.00 | 0.00 | 84 | 1008.8 |
| 20260831014632 | 86 | 175 | 1.0 | 2.0 | 0.00 | 0.00 | 0.00 | 84 | 1008.7 |
| 20260831014127 | 86 | 207 | 1.0 | 1.0 | 0.00 | 0.00 | 0.00 | 84 | 1008.4 |
| 20260831013624 | 86 | 193 | 2.0 | 2.0 | 0.00 | 0.00 | 0.00 | 84 | 1008.6 |
| 20260831013123 | 86 | 218 | 2.0 | 3.0 | 0.00 | 0.00 | 0.00 | 84 | 1008.3 |
| 20260831012618 | 86 | 199 | 1.0 | 2.0 | 0.00 | 0.00 | 0.00 | 84 | 1008.4 |
| 20260831012113 | 86 | 215 | 2.0 | 2.0 | 0.00 | 0.00 | 0.00 | 84 | 1008.2 |
| 20260831011613 | 86 | 201 | 2.0 | 2.0 | 0.00 | 0.00 | 0.00 | 85 | 1008.3 |
| 20260831011108 | 86 | 195 | 3.0 | 3.0 | 0.00 | 0.00 | 0.00 | 85 | 1008.3 |
| 20260831010604 | 86 | 190 | 0.0 | 1.0 | 0.00 | 0.00 | 0.00 | 84 | 1008.3 |
| 20260831010059 | 86 | 202 | 2.0 | 2.0 | 0.00 | 0.00 | 0.00 | 83 | 1008.2 |
| 20260831005559 | 86 | 223 | 3.0 | 6.0 | 0.00 | 0.00 | 0.00 | 83 | 1008.1 |
| 20260831005054 | 86 | 260 | 1.0 | 2.0 | 0.00 | 0.00 | 0.00 | 83 | 1008.1 |
| 20260831004550 | 86 | 108 | 4.0 | 6.0 | 0.00 | 0.00 | 0.00 | 82 | 1008.1 |
| 20260831004046 | 87 | 216 | 2.0 | 2.0 | 0.00 | 0.00 | 0.00 | 81 | 1007.8 |
| 20260831003542 | 87 | 218 | 1.0 | 2.0 | 0.00 | 0.00 | 0.00 | 81 | 1007.7 |
| 20260831003037 | 87 | 213 | 1.0 | 1.0 | 0.00 | 0.00 | 0.00 | 81 | 1007.8 |
| 20260831002536 | 87 | 218 | 1.0 | 1.0 | 0.00 | 0.00 | 0.00 | 79 | 1007.8 |
| 20260831002031 | 87 | 236 | 0.0 | 1.0 | 0.00 | 0.00 | 0.00 | 79 | 1007.7 |
| 20260831001527 | 87 | 164 | 1.0 | 1.0 | 0.00 | 0.00 | 0.00 | 79 | 1007.6 |
| 20260831001023 | 88 | 224 | 1.0 | 2.0 | 0.00 | 0.00 | 0.00 | 79 | 1007.5 |
| 20260831000519 | 88 | 51 | 2.0 | 4.0 | 0.00 | 0.00 | 0.00 | 78 | 1007.6 |
| 20260831000018 | 88 | 201 | 3.0 | 6.0 | 0.00 | 0.00 | 0.00 | 77 | 1008.0 |
| 20260830235512 | 88 | 234 | 3.0 | 4.0 | 0.00 | 0.00 | 0.00 | 77 | 1007.9 |
| 20260830235007 | 89 | 133 | 3.0 | 8.0 | 0.00 | 0.00 | 0.00 | 76 | 1007.9 |
| 20260830234502 | 89 | 184 | 4.0 | 7.0 | 0.00 | 0.00 | 0.00 | 75 | 1007.9 |
| 20260830233958 | 89 | 186 | 3.0 | 6.0 | 0.00 | 0.00 | 0.00 | 75 | 1008.0 |
| 20260830233453 | 89 | 220 | 2.0 | 3.0 | 0.00 | 0.00 | 0.00 | 75 | 1008.0 |
| 20260830232949 | 89 | 214 | 0.0 | 1.0 | 0.00 | 0.00 | 0.00 | 75 | 1007.9 |
| 20260830232444 | 89 | 189 | 3.0 | 6.0 | 0.00 | 0.00 | 0.00 | 75 | 1007.9 |
| 20260830231941 | 90 | 201 | 2.0 | 3.0 | 0.00 | 0.00 | 0.00 | 73 | 1007.7 |
| 20260830231435 | 90 | 211 | 4.0 | 7.0 | 0.00 | 0.00 | 0.00 | 73 | 1007.8 |
| 20260830230929 | 90 | 217 | 1.0 | 2.0 | 0.00 | 0.00 | 0.00 | 71 | 1007.7 |
| 20260830230425 | 90 | 207 | 3.0 | 6.0 | 0.00 | 0.00 | 0.00 | 72 | 1007.8 |
| 20260830225924 | 90 | 221 | 2.0 | 2.0 | 0.00 | 0.00 | 0.00 | 71 | 1007.7 |
| 20260830225420 | 90 | 220 | 1.0 | 1.0 | 0.00 | 0.00 | 0.00 | 72 | 1007.8 |
| 20260830224914 | 90 | 214 | 2.0 | 6.0 | 0.00 | 0.00 | 0.00 | 73 | 1007.9 |
| 20260830224413 | 91 | 216 | 1.0 | 1.0 | 0.00 | 0.00 | 0.00 | 72 | 1007.8 |
| 20260830223910 | 91 | 214 | 2.0 | 2.0 | 0.00 | 0.00 | 0.00 | 72 | 1007.9 |
| 20260830223406 | 91 | 356 | 2.0 | 4.0 | 0.00 | 0.00 | 0.00 | 70 | 1007.8 |
| 20260830222905 | 91 | 299 | 3.0 | 4.0 | 0.00 | 0.00 | 0.00 | 70 | 1008.0 |
| 20260830222401 | 91 | 219 | 1.0 | 1.0 | 0.00 | 0.00 | 0.00 | 71 | 1007.8 |
| 20260830221856 | 91 | 195 | 2.0 | 6.0 | 0.00 | 0.00 | 0.00 | 70 | 1007.9 |
| 20260830221352 | 92 | 297 | 2.0 | 2.0 | 0.00 | 0.00 | 0.00 | 68 | 1007.7 |
| 20260830220848 | 93 | 245 | 2.0 | 3.0 | 0.00 | 0.00 | 0.00 | 66 | 1008.0 |
| 20260830220347 | 92 | 258 | 1.0 | 2.0 | 0.00 | 0.00 | 0.00 | 63 | 1007.7 |
| 20260830215845 | 93 | 100 | 2.0 | 3.0 | 0.00 | 0.00 | 0.00 | 64 | 1007.8 |
| 20260830215344 | 93 | 209 | 2.0 | 2.0 | 0.00 | 0.00 | 0.00 | 65 | 1007.8 |
| 20260830214840 | 94 | 286 | 2.0 | 3.0 | 0.00 | 0.00 | 0.00 | 63 | 1007.9 |
| 20260830214335 | 93 | 205 | 2.0 | 3.0 | 0.00 | 0.00 | 0.00 | 64 | 1007.9 |
| 20260830213835 | 93 | 205 | 3.0 | 4.0 | 0.00 | 0.00 | 0.00 | 61 | 1007.9 |
| 20260830213330 | 94 | 214 | 2.0 | 3.0 | 0.00 | 0.00 | 0.00 | 63 | 1007.8 |
| 20260830212826 | 93 | 348 | 4.0 | 7.0 | 0.00 | 0.00 | 0.00 | 66 | 1008.2 |
| 20260830212321 | 93 | 226 | 3.0 | 3.0 | 0.00 | 0.00 | 0.00 | 67 | 1007.9 |
| 20260830211820 | 94 | 220 | 2.0 | 4.0 | 0.00 | 0.00 | 0.00 | 65 | 1008.1 |
| 20260830211315 | 94 | 348 | 7.0 | 9.0 | 0.00 | 0.00 | 0.00 | 65 | 1008.3 |
| 20260830210811 | 94 | 353 | 3.0 | 4.0 | 0.00 | 0.00 | 0.00 | 65 | 1008.4 |
| 20260830210309 | 95 | 229 | 2.0 | 4.0 | 0.00 | 0.00 | 0.00 | 64 | 1008.4 |
| 20260830205808 | 95 | 244 | 3.0 | 3.0 | 0.00 | 0.00 | 0.00 | 63 | 1008.6 |
| 20260830205305 | 96 | 250 | 3.0 | 3.0 | 0.00 | 0.00 | 0.00 | 64 | 1008.7 |
| 20260830204758 | 95 | 14 | 4.0 | 6.0 | 0.00 | 0.00 | 0.00 | 64 | 1008.7 |
| 20260830204256 | 95 | 233 | 1.0 | 1.0 | 0.00 | 0.00 | 0.00 | 65 | 1008.6 |
| 20260830203752 | 95 | 215 | 4.0 | 4.0 | 0.00 | 0.00 | 0.00 | 64 | 1009.1 |
| 20260830203248 | 94 | 234 | 4.0 | 6.0 | 0.00 | 0.00 | 0.00 | 66 | 1009.1 |
| 20260830202748 | 95 | 246 | 3.0 | 6.0 | 0.00 | 0.00 | 0.00 | 65 | 1009.2 |
| 20260830202243 | 96 | 218 | 1.0 | 2.0 | 0.00 | 0.00 | 0.00 | 63 | 1009.4 |
| 20260830201742 | 95 | 52 | 3.0 | 4.0 | 0.00 | 0.00 | 0.00 | 65 | 1009.3 |
| 20260830201238 | 95 | 181 | 4.0 | 6.0 | 0.00 | 0.00 | 0.00 | 63 | 1009.6 |
| 20260830200733 | 95 | 225 | 2.0 | 2.0 | 0.00 | 0.00 | 0.00 | 66 | 1009.6 |